Time;durP1;ratioP1;P1;durP2;ratioP2;P2;SDS_P1;SDS_P2;PMS_P1;PMS_P2;Temp;Humidity;BMP_temperature;BMP_pressure;BME280_temperature;BME280_humidity;BME280_pressure;Samples;Min_cycle;Max_cycle;Signal;HPM_P1;HPM_P2
2021/05/09 00:02:00;;;;;;;1.63;0.55;;;;;;;;;;5091669;28;20024;-18
2021/05/09 00:04:25;;;;;;;3.42;0.85;;;;;;;;;;5093190;28;20085;-18
2021/05/09 00:06:52;;;;;;;1.10;0.68;;;;;;;;;;5092815;28;20039;-18
2021/05/09 00:09:18;;;;;;;2.38;0.90;;;;;;;;;;5092848;28;20355;-19
2021/05/09 00:11:43;;;;;;;1.00;0.70;;;;;;;;;;5092824;28;20023;-18
2021/05/09 00:14:08;;;;;;;0.90;0.60;;;;;;;;;;5092844;28;20518;-18
2021/05/09 00:16:36;;;;;;;3.58;0.90;;;;;;;;;;5091465;28;20020;-18
2021/05/09 00:19:01;;;;;;;3.00;0.77;;;;;;;;;;5092673;28;20031;-18
2021/05/09 00:21:26;;;;;;;1.00;0.63;;;;;;;;;;5092651;28;20024;-18
2021/05/09 00:23:52;;;;;;;1.35;0.88;;;;;;;;;;5092977;28;20028;-18
2021/05/09 00:26:17;;;;;;;1.52;0.90;;;;;;;;;;5092452;28;20028;-18
2021/05/09 00:28:42;;;;;;;1.58;0.50;;;;;;;;;;5092622;28;20056;-17
2021/05/09 00:31:08;;;;;;;2.95;0.80;;;;;;;;;;5092335;28;20072;-18
2021/05/09 00:33:33;;;;;;;2.25;0.70;;;;;;;;;;5092760;28;20060;-18
2021/05/09 00:35:58;;;;;;;1.73;0.70;;;;;;;;;;5092784;28;20028;-19
2021/05/09 00:38:24;;;;;;;1.02;0.52;;;;;;;;;;5092443;28;20390;-18
2021/05/09 00:40:50;;;;;;;1.10;0.70;;;;;;;;;;5092253;28;20020;-18
2021/05/09 00:43:15;;;;;;;1.23;0.68;;;;;;;;;;5092502;28;20024;-18
2021/05/09 00:45:41;;;;;;;0.93;0.68;;;;;;;;;;5091003;28;20070;-18
2021/05/09 00:48:08;;;;;;;0.80;0.65;;;;;;;;;;5108028;28;20458;-18
2021/05/09 00:50:34;;;;;;;3.75;0.85;;;;;;;;;;5092142;28;20065;-18
2021/05/09 00:52:59;;;;;;;1.90;0.95;;;;;;;;;;5091134;28;20123;-18
2021/05/09 00:55:25;;;;;;;1.00;0.63;;;;;;;;;;5092337;28;20017;-19
2021/05/09 00:57:50;;;;;;;1.88;0.70;;;;;;;;;;5092253;28;20028;-18
2021/05/09 01:00:16;;;;;;;0.82;0.60;;;;;;;;;;5092554;28;20121;-18
2021/05/09 01:02:43;;;;;;;1.13;0.70;;;;;;;;;;5092204;28;20024;-18
2021/05/09 01:05:10;;;;;;;0.95;0.75;;;;;;;;;;5096438;28;20023;-18
2021/05/09 01:07:36;;;;;;;2.25;0.77;;;;;;;;;;5096170;28;20039;-18
2021/05/09 01:10:03;;;;;;;1.10;0.63;;;;;;;;;;5094896;28;20111;-18
2021/05/09 01:12:31;;;;;;;1.77;0.95;;;;;;;;;;5094815;28;20034;-18
2021/05/09 01:14:56;;;;;;;4.90;0.93;;;;;;;;;;5096288;28;20012;-18
2021/05/09 01:17:22;;;;;;;3.03;0.77;;;;;;;;;;5094803;28;20127;-18
2021/05/09 01:19:47;;;;;;;1.00;0.75;;;;;;;;;;5096273;28;20022;-18
2021/05/09 01:22:13;;;;;;;1.45;1.00;;;;;;;;;;5096288;28;20479;-18
2021/05/09 01:24:39;;;;;;;1.98;0.90;;;;;;;;;;5095889;28;20020;-18
2021/05/09 01:27:05;;;;;;;2.83;0.60;;;;;;;;;;5096049;28;20036;-19
2021/05/09 01:29:31;;;;;;;1.70;0.80;;;;;;;;;;5095534;28;20074;-18
2021/05/09 01:31:57;;;;;;;1.45;0.80;;;;;;;;;;5095862;28;20099;-18
2021/05/09 01:34:22;;;;;;;1.65;0.88;;;;;;;;;;5094504;28;20056;-18
2021/05/09 01:36:48;;;;;;;0.70;0.70;;;;;;;;;;5111352;28;20127;-19
2021/05/09 01:39:14;;;;;;;2.25;0.90;;;;;;;;;;5094337;28;20053;-19
2021/05/09 01:41:39;;;;;;;1.80;0.70;;;;;;;;;;5095826;28;20492;-19
2021/05/09 01:44:05;;;;;;;1.90;0.68;;;;;;;;;;5095594;28;20371;-19
2021/05/09 01:46:30;;;;;;;6.68;0.85;;;;;;;;;;5095407;28;20036;-18
2021/05/09 01:48:57;;;;;;;1.92;0.80;;;;;;;;;;5095488;28;20027;-20
2021/05/09 01:51:23;;;;;;;1.73;1.15;;;;;;;;;;5095422;28;20024;-19
2021/05/09 01:53:48;;;;;;;1.58;1.00;;;;;;;;;;5094138;28;20231;-19
2021/05/09 01:56:15;;;;;;;2.30;0.80;;;;;;;;;;5094050;28;20035;-19
2021/05/09 01:58:41;;;;;;;1.52;0.80;;;;;;;;;;5093876;28;20020;-19
2021/05/09 02:01:13;;;;;;;0.80;0.70;;;;;;;;;;5095362;28;20024;-19
2021/05/09 02:03:51;;;;;;;0.77;0.65;;;;;;;;;;5095067;28;20459;-20
2021/05/09 02:06:17;;;;;;;1.17;0.90;;;;;;;;;;5093734;28;20085;-19
2021/05/09 02:08:43;;;;;;;2.53;0.77;;;;;;;;;;5095316;28;20016;-19
2021/05/09 02:11:34;;;;;;;2.80;1.02;;;;;;;;;;5093701;28;20044;-19
2021/05/09 02:14:04;;;;;;;2.22;1.17;;;;;;;;;;5110447;28;20028;-19
2021/05/09 02:16:31;;;;;;;4.78;0.88;;;;;;;;;;5092967;28;20019;-21
2021/05/09 02:18:58;;;;;;;1.05;0.90;;;;;;;;;;5093455;28;20028;-19
2021/05/09 02:21:34;;;;;;;1.10;0.70;;;;;;;;;;5093628;28;20024;-18
2021/05/09 02:24:00;;;;;;;1.40;1.13;;;;;;;;;;5093572;28;20020;-19
2021/05/09 02:26:26;;;;;;;0.85;0.60;;;;;;;;;;5094968;28;20535;-18
2021/05/09 02:28:51;;;;;;;1.67;0.77;;;;;;;;;;5094932;28;20024;-18
2021/05/09 02:31:17;;;;;;;1.50;0.75;;;;;;;;;;5093220;28;20509;-18
2021/05/09 02:33:43;;;;;;;1.40;0.70;;;;;;;;;;5094838;28;20024;-18
2021/05/09 02:36:08;;;;;;;0.70;0.60;;;;;;;;;;5093397;28;20131;-19
2021/05/09 02:38:34;;;;;;;1.25;0.85;;;;;;;;;;5110186;28;20031;-18
2021/05/09 02:40:59;;;;;;;4.78;0.88;;;;;;;;;;5094775;28;20019;-19
2021/05/09 02:43:25;;;;;;;1.50;1.02;;;;;;;;;;5110223;28;20479;-18
2021/05/09 02:45:50;;;;;;;0.90;0.80;;;;;;;;;;5094261;28;20067;-19
2021/05/09 02:48:15;;;;;;;0.88;0.63;;;;;;;;;;5093077;28;20050;-18
2021/05/09 02:50:43;;;;;;;2.40;0.70;;;;;;;;;;5092892;28;20066;-19
2021/05/09 02:53:09;;;;;;;1.63;1.00;;;;;;;;;;5110060;28;20028;-18
2021/05/09 02:55:34;;;;;;;1.00;0.80;;;;;;;;;;5094321;28;20022;-18
2021/05/09 02:58:00;;;;;;;1.45;0.98;;;;;;;;;;5092957;28;20536;-18
2021/05/09 03:00:25;;;;;;;2.05;0.82;;;;;;;;;;5094189;28;20054;-19
2021/05/09 03:02:52;;;;;;;4.50;1.02;;;;;;;;;;5093907;28;20025;-19
2021/05/09 03:05:22;;;;;;;2.05;1.10;;;;;;;;;;5094251;28;20020;-18
2021/05/09 03:07:47;;;;;;;1.17;0.85;;;;;;;;;;5092608;28;20047;-19
2021/05/09 03:10:14;;;;;;;3.47;1.00;;;;;;;;;;5092588;28;20012;-18
2021/05/09 03:12:39;;;;;;;1.52;0.75;;;;;;;;;;5092608;28;20166;-18
2021/05/09 03:15:05;;;;;;;3.03;0.63;;;;;;;;;;5094107;28;20016;-19
2021/05/09 03:17:32;;;;;;;1.80;1.15;;;;;;;;;;5093936;28;20042;-18
2021/05/09 03:19:58;;;;;;;1.52;0.85;;;;;;;;;;5093698;28;20063;-19
2021/05/09 03:22:23;;;;;;;1.75;0.80;;;;;;;;;;5094081;28;20064;-18
2021/05/09 03:24:49;;;;;;;1.02;0.93;;;;;;;;;;5093494;28;20020;-18
2021/05/09 03:27:14;;;;;;;1.23;0.80;;;;;;;;;;5093698;28;20093;-18
2021/05/09 03:29:40;;;;;;;3.10;1.00;;;;;;;;;;5108963;28;20048;-19
2021/05/09 03:32:05;;;;;;;1.23;0.75;;;;;;;;;;5093551;28;20031;-18
2021/05/09 03:34:31;;;;;;;1.67;0.70;;;;;;;;;;5093395;28;20028;-18
2021/05/09 03:36:56;;;;;;;2.13;1.17;;;;;;;;;;5092122;28;20479;-19
2021/05/09 03:39:21;;;;;;;1.40;0.77;;;;;;;;;;5091985;28;20016;-19
2021/05/09 03:41:47;;;;;;;1.02;0.90;;;;;;;;;;5093355;28;20095;-18
2021/05/09 03:44:12;;;;;;;1.33;0.75;;;;;;;;;;5093344;28;20066;-19
2021/05/09 03:46:38;;;;;;;1.98;0.80;;;;;;;;;;5093369;28;20040;-18
2021/05/09 03:49:03;;;;;;;2.55;0.80;;;;;;;;;;5093512;28;20371;-19
2021/05/09 03:51:28;;;;;;;1.08;0.95;;;;;;;;;;5093220;28;20032;-18
2021/05/09 03:53:54;;;;;;;0.98;0.68;;;;;;;;;;5093504;28;20366;-18
2021/05/09 03:56:19;;;;;;;2.15;1.02;;;;;;;;;;5093434;28;20073;-19
2021/05/09 03:58:44;;;;;;;1.20;0.88;;;;;;;;;;5092938;28;20103;-19
2021/05/09 04:01:10;;;;;;;1.20;0.80;;;;;;;;;;5093180;28;20024;-19
2021/05/09 04:03:35;;;;;;;2.85;1.13;;;;;;;;;;5091561;28;20085;-19
2021/05/09 04:06:01;;;;;;;1.80;0.98;;;;;;;;;;5092781;28;20031;-19
2021/05/09 04:08:26;;;;;;;1.67;0.95;;;;;;;;;;5092959;28;20047;-19
2021/05/09 04:10:53;;;;;;;0.98;0.70;;;;;;;;;;5092658;28;20064;-19
2021/05/09 04:13:19;;;;;;;1.85;0.90;;;;;;;;;;5091551;28;20020;-19
2021/05/09 04:15:44;;;;;;;2.53;0.82;;;;;;;;;;5092975;28;20032;-19
2021/05/09 04:18:09;;;;;;;5.22;0.95;;;;;;;;;;5091499;28;20077;-19
2021/05/09 04:20:36;;;;;;;3.47;1.00;;;;;;;;;;5092798;28;20055;-19
2021/05/09 04:23:17;;;;;;;1.27;0.70;;;;;;;;;;5092703;28;20486;-19
2021/05/09 04:25:50;;;;;;;1.98;0.85;;;;;;;;;;5108334;28;20107;-19
2021/05/09 04:28:15;;;;;;;1.45;0.88;;;;;;;;;;5092562;28;20046;-18
2021/05/09 04:30:41;;;;;;;0.55;0.55;;;;;;;;;;5092372;28;20490;-19
2021/05/09 04:33:06;;;;;;;7.03;0.88;;;;;;;;;;5092631;28;20108;-19
2021/05/09 04:35:32;;;;;;;1.52;0.90;;;;;;;;;;5092436;28;20047;-19
2021/05/09 04:37:58;;;;;;;5.90;1.05;;;;;;;;;;5092264;28;20050;-19
2021/05/09 04:40:24;;;;;;;2.28;0.93;;;;;;;;;;5092642;28;20020;-19
2021/05/09 04:42:49;;;;;;;2.05;1.20;;;;;;;;;;5108060;28;20396;-26
2021/05/09 04:45:15;;;;;;;2.75;0.63;;;;;;;;;;5092541;28;20343;-19
2021/05/09 04:47:40;;;;;;;1.42;0.93;;;;;;;;;;5092238;28;20046;-19
2021/05/09 04:50:06;;;;;;;1.40;0.63;;;;;;;;;;5092358;28;20013;-19
2021/05/09 04:52:32;;;;;;;1.02;0.70;;;;;;;;;;5092201;28;20425;-19
2021/05/09 04:54:57;;;;;;;2.30;0.77;;;;;;;;;;5092420;28;20028;-19
2021/05/09 04:57:22;;;;;;;2.88;1.25;;;;;;;;;;5091004;28;20383;-19
2021/05/09 04:59:48;;;;;;;1.33;1.10;;;;;;;;;;5092202;28;20055;-18
2021/05/09 05:02:13;;;;;;;3.00;0.65;;;;;;;;;;5092281;28;20028;-18
2021/05/09 05:04:38;;;;;;;1.35;0.57;;;;;;;;;;5092204;28;20016;-18
2021/05/09 05:07:04;;;;;;;1.58;0.90;;;;;;;;;;5092027;28;20131;-19
2021/05/09 05:09:29;;;;;;;1.65;0.88;;;;;;;;;;5092220;28;20420;-19
2021/05/09 05:11:56;;;;;;;1.42;0.93;;;;;;;;;;5090217;28;20185;-18
2021/05/09 05:14:22;;;;;;;2.83;0.70;;;;;;;;;;5090822;28;20020;-18
2021/05/09 05:16:47;;;;;;;2.05;0.93;;;;;;;;;;5092296;28;20036;-18
2021/05/09 05:19:12;;;;;;;1.98;1.00;;;;;;;;;;5092286;28;20500;-18
2021/05/09 05:21:38;;;;;;;1.90;1.08;;;;;;;;;;5091992;28;20032;-17
2021/05/09 05:24:03;;;;;;;1.63;0.98;;;;;;;;;;5090998;28;20012;-17
2021/05/09 05:26:29;;;;;;;1.45;0.95;;;;;;;;;;5091850;28;20299;-17
2021/05/09 05:28:54;;;;;;;3.33;1.00;;;;;;;;;;5091983;28;20569;-17
2021/05/09 05:31:20;;;;;;;1.80;0.75;;;;;;;;;;5091706;28;20078;-18
2021/05/09 05:33:45;;;;;;;6.30;1.17;;;;;;;;;;5092076;28;20058;-19
2021/05/09 05:36:11;;;;;;;2.25;0.88;;;;;;;;;;5091842;28;20035;-19
2021/05/09 05:38:36;;;;;;;0.80;0.80;;;;;;;;;;5091686;28;20050;-19
2021/05/09 05:41:01;;;;;;;1.25;0.90;;;;;;;;;;5090566;28;20028;-19
2021/05/09 05:43:28;;;;;;;1.50;1.20;;;;;;;;;;5091776;28;20343;-19
2021/05/09 05:45:54;;;;;;;1.77;0.77;;;;;;;;;;5091547;28;20032;-18
2021/05/09 05:48:20;;;;;;;3.40;0.90;;;;;;;;;;5091807;28;20023;-19
2021/05/09 05:50:46;;;;;;;1.42;0.88;;;;;;;;;;5093704;28;20024;-18
2021/05/09 05:53:12;;;;;;;2.33;0.90;;;;;;;;;;5095622;28;20027;-19
2021/05/09 05:55:37;;;;;;;0.80;0.80;;;;;;;;;;5095193;28;20109;-19
2021/05/09 05:58:03;;;;;;;1.58;0.80;;;;;;;;;;5095014;28;20062;-19
2021/05/09 06:00:28;;;;;;;3.13;1.13;;;;;;;;;;5095130;28;20020;-16
2021/05/09 06:02:54;;;;;;;2.58;1.80;;;;;;;;;;5095409;28;20476;-16
2021/05/09 06:05:19;;;;;;;1.48;1.00;;;;;;;;;;5095141;28;20035;-16
2021/05/09 06:07:45;;;;;;;4.07;1.30;;;;;;;;;;5094874;28;20099;-17
2021/05/09 06:10:10;;;;;;;0.93;0.90;;;;;;;;;;5095371;28;20024;-17
2021/05/09 06:12:36;;;;;;;1.85;0.80;;;;;;;;;;5094987;28;20046;-17
2021/05/09 06:15:02;;;;;;;3.25;1.00;;;;;;;;;;5094891;28;20031;-17
2021/05/09 06:17:27;;;;;;;1.92;0.80;;;;;;;;;;5093786;28;20103;-17
2021/05/09 06:19:52;;;;;;;1.10;0.95;;;;;;;;;;5094745;28;20024;-17
2021/05/09 06:22:18;;;;;;;1.15;0.80;;;;;;;;;;5094833;28;20448;-17
2021/05/09 06:24:43;;;;;;;6.40;1.20;;;;;;;;;;5094682;28;20377;-17
2021/05/09 06:27:09;;;;;;;2.03;0.98;;;;;;;;;;5093421;28;20032;-17
2021/05/09 06:29:34;;;;;;;3.38;0.75;;;;;;;;;;5094354;28;20497;-17
2021/05/09 06:31:59;;;;;;;1.35;0.90;;;;;;;;;;5095025;28;20078;-17
2021/05/09 06:34:25;;;;;;;5.07;1.15;;;;;;;;;;5094588;28;20123;-17
2021/05/09 06:36:50;;;;;;;1.55;1.20;;;;;;;;;;5094717;28;20431;-17
2021/05/09 06:39:20;;;;;;;4.00;1.05;;;;;;;;;;5094657;28;20028;-17
2021/05/09 06:41:45;;;;;;;3.80;0.80;;;;;;;;;;5093036;28;20020;-17
2021/05/09 06:44:11;;;;;;;1.10;0.70;;;;;;;;;;4738029;28;9999638;-17
2021/05/09 06:46:37;;;;;;;1.30;0.95;;;;;;;;;;5089144;28;20020;-17
2021/05/09 06:49:03;;;;;;;1.58;0.82;;;;;;;;;;5089369;28;20032;-17
2021/05/09 06:51:28;;;;;;;3.67;1.27;;;;;;;;;;5090487;28;20070;-20
2021/05/09 06:53:55;;;;;;;0.73;0.73;;;;;;;;;;5090502;28;20043;-24
2021/05/09 06:56:21;;;;;;;0.55;0.50;;;;;;;;;;5088769;28;20027;-20
2021/05/09 06:58:46;;;;;;;0.98;0.52;;;;;;;;;;5089748;28;20024;-16
2021/05/09 07:01:13;;;;;;;1.17;0.70;;;;;;;;;;5105468;28;20028;-17
2021/05/09 07:03:38;;;;;;;2.05;0.95;;;;;;;;;;5089876;28;20032;-17
2021/05/09 07:06:03;;;;;;;3.00;0.68;;;;;;;;;;5088427;28;20039;-17
2021/05/09 07:08:30;;;;;;;6.57;0.95;;;;;;;;;;5089691;28;20580;-17
2021/05/09 07:10:55;;;;;;;2.83;1.00;;;;;;;;;;5089812;28;20502;-17
2021/05/09 07:13:20;;;;;;;1.88;0.55;;;;;;;;;;5090527;28;20040;-16
2021/05/09 07:15:47;;;;;;;4.13;0.68;;;;;;;;;;5090245;28;20020;-18
2021/05/09 07:18:20;;;;;;;2.63;0.50;;;;;;;;;;5089934;28;20106;-18
2021/05/09 07:20:50;;;;;;;2.90;0.82;;;;;;;;;;5089764;28;20085;-16
2021/05/09 07:23:16;;;;;;;0.68;0.57;;;;;;;;;;5089089;28;20028;-16
2021/05/09 07:25:42;;;;;;;2.00;0.60;;;;;;;;;;5090163;28;20036;-17
2021/05/09 07:28:08;;;;;;;3.17;0.70;;;;;;;;;;5090248;28;20028;-17
2021/05/09 07:30:34;;;;;;;1.25;0.70;;;;;;;;;;5089537;28;20051;-17
2021/05/09 07:33:00;;;;;;;2.15;0.70;;;;;;;;;;5090253;28;20028;-17
2021/05/09 07:35:25;;;;;;;1.23;0.60;;;;;;;;;;5090129;28;20046;-17
2021/05/09 07:37:52;;;;;;;3.05;0.32;;;;;;;;;;5090070;28;20024;-17
2021/05/09 07:40:18;;;;;;;0.95;0.57;;;;;;;;;;5089817;28;20031;-17
2021/05/09 07:42:43;;;;;;;0.98;0.80;;;;;;;;;;5089454;28;20470;-17
2021/05/09 07:45:15;;;;;;;1.23;0.50;;;;;;;;;;5089730;28;20047;-17
2021/05/09 07:47:40;;;;;;;1.70;0.70;;;;;;;;;;5089819;28;20084;-17
2021/05/09 07:50:08;;;;;;;1.73;0.98;;;;;;;;;;5089960;28;20351;-17
2021/05/09 07:52:34;;;;;;;1.33;0.63;;;;;;;;;;5089729;28;20043;-17
2021/05/09 07:54:59;;;;;;;1.25;0.68;;;;;;;;;;5089575;28;20024;-17
2021/05/09 07:57:25;;;;;;;1.95;0.90;;;;;;;;;;5088774;28;20032;-17
2021/05/09 07:59:50;;;;;;;1.55;0.93;;;;;;;;;;5089631;28;20462;-17
2021/05/09 08:02:16;;;;;;;2.78;0.73;;;;;;;;;;5089608;28;20027;-17
2021/05/09 08:04:41;;;;;;;0.70;0.50;;;;;;;;;;5087980;28;20111;-17
2021/05/09 08:07:06;;;;;;;4.05;0.60;;;;;;;;;;5089026;28;20395;-16
2021/05/09 08:09:32;;;;;;;1.58;0.93;;;;;;;;;;5087984;28;20112;-17
2021/05/09 08:11:57;;;;;;;1.50;0.90;;;;;;;;;;5089513;28;20089;-17
2021/05/09 08:14:23;;;;;;;4.45;1.23;;;;;;;;;;5088439;28;20538;-17
2021/05/09 08:16:48;;;;;;;2.30;1.33;;;;;;;;;;5089233;28;20081;-17
2021/05/09 08:19:13;;;;;;;1.10;0.73;;;;;;;;;;5088918;28;20024;-16
2021/05/09 08:21:39;;;;;;;1.48;0.90;;;;;;;;;;5089428;28;20121;-16
2021/05/09 08:24:04;;;;;;;3.22;0.60;;;;;;;;;;5089042;28;20528;-17
2021/05/09 08:26:30;;;;;;;2.40;1.10;;;;;;;;;;5088901;28;20028;-17
2021/05/09 08:28:55;;;;;;;0.88;0.57;;;;;;;;;;5088490;28;20387;-17
2021/05/09 08:31:20;;;;;;;5.43;0.45;;;;;;;;;;5088507;28;20090;-16
2021/05/09 08:33:48;;;;;;;1.45;0.70;;;;;;;;;;5088768;28;20020;-17
2021/05/09 08:36:14;;;;;;;2.13;0.73;;;;;;;;;;5087376;28;20064;-17
2021/05/09 08:38:39;;;;;;;2.63;0.50;;;;;;;;;;5088868;28;20039;-16
2021/05/09 08:41:05;;;;;;;0.95;0.55;;;;;;;;;;5088894;28;20154;-16
2021/05/09 08:43:30;;;;;;;2.55;1.17;;;;;;;;;;5088559;28;20016;-25
2021/05/09 08:45:59;;;;;;;4.78;1.42;;;;;;;;;;5088947;28;20093;-17
2021/05/09 08:48:25;;;;;;;1.55;0.95;;;;;;;;;;5088454;28;20100;-16
2021/05/09 08:50:51;;;;;;;3.38;0.88;;;;;;;;;;5088255;28;20024;-26
2021/05/09 08:53:17;;;;;;;1.30;0.70;;;;;;;;;;5087064;28;20483;-17
2021/05/09 08:55:43;;;;;;;1.75;0.77;;;;;;;;;;5088263;28;20047;-17
2021/05/09 08:58:09;;;;;;;1.30;1.00;;;;;;;;;;5088278;28;20027;-17
2021/05/09 09:00:35;;;;;;;4.63;1.48;;;;;;;;;;5088160;28;20527;-17
2021/05/09 09:03:04;;;;;;;2.50;1.15;;;;;;;;;;5088279;28;20467;-17
2021/05/09 09:05:50;;;;;;;4.93;1.20;;;;;;;;;;5086551;28;20697;-17
2021/05/09 09:08:15;;;;;;;0.82;0.75;;;;;;;;;;5088247;28;20395;-17
2021/05/09 09:10:46;;;;;;;2.33;2.13;;;;;;;;;;5088224;28;20031;-17
2021/05/09 09:13:23;;;;;;;5.43;1.35;;;;;;;;;;5088566;28;20111;-17
2021/05/09 09:15:52;;;;;;;2.42;1.27;;;;;;;;;;5087802;28;20024;-17
2021/05/09 09:18:24;;;;;;;2.70;1.25;;;;;;;;;;5086493;28;20417;-18
2021/05/09 09:20:50;;;;;;;0.70;0.68;;;;;;;;;;5088057;28;20032;-17
2021/05/09 09:23:15;;;;;;;1.33;1.00;;;;;;;;;;5087152;28;20364;-17
2021/05/09 09:25:44;;;;;;;2.13;0.82;;;;;;;;;;5091644;28;20063;-17
2021/05/09 09:28:10;;;;;;;3.15;1.42;;;;;;;;;;5092196;28;20024;-17
2021/05/09 09:30:54;;;;;;;1.45;0.55;;;;;;;;;;5091609;28;20402;-17
2021/05/09 09:33:20;;;;;;;5.05;1.10;;;;;;;;;;5092482;28;20040;-18
2021/05/09 09:35:47;;;;;;;1.27;0.88;;;;;;;;;;5091919;28;20411;-17
2021/05/09 09:38:23;;;;;;;0.80;0.80;;;;;;;;;;5091889;28;20355;-17
2021/05/09 09:41:07;;;;;;;2.75;1.20;;;;;;;;;;5091695;28;20024;-17
2021/05/09 09:43:33;;;;;;;1.92;1.27;;;;;;;;;;5091494;28;20020;-16
2021/05/09 09:45:58;;;;;;;1.85;1.10;;;;;;;;;;5091845;28;20026;-16
2021/05/09 09:48:39;;;;;;;1.27;1.00;;;;;;;;;;5091441;28;20067;-17
2021/05/09 09:51:05;;;;;;;2.92;2.05;;;;;;;;;;5091864;28;20486;-17
2021/05/09 09:53:33;;;;;;;7.43;2.40;;;;;;;;;;5107578;28;20024;-17
2021/05/09 09:56:09;;;;;;;3.33;2.10;;;;;;;;;;5091050;28;20036;-17
2021/05/09 09:58:43;;;;;;;2.67;0.80;;;;;;;;;;5091763;28;20110;-17
2021/05/09 10:01:09;;;;;;;7.90;2.80;;;;;;;;;;5091901;28;20110;-17
2021/05/09 10:03:35;;;;;;;4.05;1.17;;;;;;;;;;5091387;28;20016;-17
2021/05/09 10:06:01;;;;;;;2.30;1.17;;;;;;;;;;5091196;28;20112;-17
2021/05/09 10:08:27;;;;;;;1.45;1.27;;;;;;;;;;5091141;28;20012;-17
2021/05/09 10:10:52;;;;;;;0.57;0.47;;;;;;;;;;5091301;28;20028;-18
2021/05/09 10:13:22;;;;;;;0.95;0.82;;;;;;;;;;5091766;28;20024;-17
2021/05/09 10:15:47;;;;;;;0.70;0.68;;;;;;;;;;5091592;28;20039;-17
2021/05/09 10:18:13;;;;;;;2.13;0.98;;;;;;;;;;5091654;28;20016;-17
2021/05/09 10:20:40;;;;;;;0.82;0.65;;;;;;;;;;5091596;28;20398;-17
2021/05/09 10:23:06;;;;;;;1.20;1.00;;;;;;;;;;5091436;28;20016;-17
2021/05/09 10:25:45;;;;;;;2.13;1.13;;;;;;;;;;5091235;28;20074;-17
2021/05/09 10:28:10;;;;;;;1.45;0.88;;;;;;;;;;5091420;28;20043;-17
2021/05/09 10:30:50;;;;;;;3.20;0.77;;;;;;;;;;5090447;28;20040;-17
2021/05/09 10:33:34;;;;;;;1.42;1.20;;;;;;;;;;5089895;28;20028;-17
2021/05/09 10:36:00;;;;;;;1.33;0.95;;;;;;;;;;5090495;28;20024;-17
2021/05/09 10:38:25;;;;;;;0.95;0.70;;;;;;;;;;5091012;28;20020;-17
2021/05/09 10:41:08;;;;;;;3.22;1.08;;;;;;;;;;5089741;28;20028;-17
2021/05/09 10:43:33;;;;;;;1.45;0.60;;;;;;;;;;5090154;28;20101;-17
2021/05/09 10:45:58;;;;;;;0.40;0.40;;;;;;;;;;5091040;28;20032;-17
2021/05/09 10:48:32;;;;;;;1.23;0.98;;;;;;;;;;5090688;28;20032;-17
2021/05/09 10:51:03;;;;;;;2.20;0.40;;;;;;;;;;5090421;28;20210;-17
2021/05/09 10:53:32;;;;;;;1.33;0.43;;;;;;;;;;5090662;28;20028;-16
2021/05/09 10:55:58;;;;;;;1.65;1.00;;;;;;;;;;5090440;28;20101;-19
2021/05/09 10:58:38;;;;;;;1.65;0.90;;;;;;;;;;5090429;28;20024;-18
2021/05/09 11:01:07;;;;;;;0.50;0.50;;;;;;;;;;5090628;28;20047;-18
2021/05/09 11:03:53;;;;;;;1.00;0.52;;;;;;;;;;5090244;28;20111;-16
2021/05/09 11:06:19;;;;;;;3.63;0.80;;;;;;;;;;5090075;28;20052;-17
2021/05/09 11:08:45;;;;;;;0.90;0.63;;;;;;;;;;5090039;28;20016;-17
2021/05/09 11:11:23;;;;;;;0.08;0.08;;;;;;;;;;5090054;28;20036;-17
2021/05/09 11:14:00;;;;;;;0.93;0.65;;;;;;;;;;5089826;28;20098;-17
2021/05/09 11:16:26;;;;;;;3.15;0.70;;;;;;;;;;5105825;28;20024;-17
2021/05/09 11:18:57;;;;;;;5.18;0.75;;;;;;;;;;5089537;28;20069;-17
2021/05/09 11:21:23;;;;;;;1.60;0.90;;;;;;;;;;5089828;28;20019;-17
2021/05/09 11:23:50;;;;;;;0.95;0.70;;;;;;;;;;5090165;28;20018;-17
2021/05/09 11:26:20;;;;;;;0.35;0.25;;;;;;;;;;5090083;28;20096;-17
2021/05/09 11:28:45;;;;;;;3.30;1.00;;;;;;;;;;5088267;28;20416;-17
2021/05/09 11:31:26;;;;;;;1.08;0.57;;;;;;;;;;5089298;28;20040;-20
2021/05/09 11:33:52;;;;;;;6.65;0.95;;;;;;;;;;5105182;28;20455;-18
2021/05/09 11:36:25;;;;;;;1.02;0.93;;;;;;;;;;5089460;28;20020;-24
2021/05/09 11:38:50;;;;;;;0.90;0.90;;;;;;;;;;5089591;28;20063;-16
2021/05/09 11:41:15;;;;;;;2.47;1.10;;;;;;;;;;5089859;28;20055;-17
2021/05/09 11:44:00;;;;;;;0.00;0.00;;;;;;;;;;5089330;28;20471;-21
2021/05/09 11:46:32;;;;;;;1.02;0.70;;;;;;;;;;5083881;28;20032;-16
2021/05/09 11:49:16;;;;;;;0.50;0.30;;;;;;;;;;5089438;28;20028;-19
2021/05/09 11:51:48;;;;;;;2.70;0.75;;;;;;;;;;5089445;28;20024;-16
2021/05/09 11:54:14;;;;;;;3.22;1.98;;;;;;;;;;5089118;28;20574;-17
2021/05/09 11:56:53;;;;;;;2.13;0.95;;;;;;;;;;5081315;28;20024;-17
2021/05/09 11:59:38;;;;;;;9.43;2.15;;;;;;;;;;5069292;28;20082;-17
2021/05/09 12:02:13;;;;;;;1.95;1.48;;;;;;;;;;5068301;28;20033;-17
2021/05/09 12:04:39;;;;;;;10.23;4.82;;;;;;;;;;5068571;28;20036;-17
2021/05/09 12:07:05;;;;;;;10.85;5.65;;;;;;;;;;5068715;28;20041;-17
2021/05/09 12:09:31;;;;;;;22.80;7.15;;;;;;;;;;5069407;28;20448;-16
2021/05/09 12:11:57;;;;;;;28.20;10.85;;;;;;;;;;5068877;28;20390;-17
2021/05/09 12:14:23;;;;;;;27.25;10.43;;;;;;;;;;5068990;28;20033;-16
2021/05/09 12:16:48;;;;;;;11.68;5.13;;;;;;;;;;5069259;28;20035;-16
2021/05/09 12:19:14;;;;;;;17.85;7.50;;;;;;;;;;5068987;28;20419;-16
2021/05/09 12:21:53;;;;;;;26.50;8.90;;;;;;;;;;5069062;28;20418;-16
2021/05/09 12:24:18;;;;;;;22.52;8.82;;;;;;;;;;5069092;28;20062;-16
2021/05/09 12:26:58;;;;;;;3.97;3.47;;;;;;;;;;5073176;28;20032;-16
2021/05/09 12:29:24;;;;;;;17.45;6.90;;;;;;;;;;5088692;28;20052;-16
2021/05/09 12:31:50;;;;;;;22.25;8.57;;;;;;;;;;5088015;28;20024;-16
2021/05/09 12:34:28;;;;;;;17.75;5.53;;;;;;;;;;5088877;28;20059;-16
2021/05/09 12:37:04;;;;;;;29.88;6.72;;;;;;;;;;5088522;28;20568;-17
2021/05/09 12:39:29;;;;;;;13.82;6.55;;;;;;;;;;5087511;28;20074;-18
2021/05/09 12:41:54;;;;;;;27.77;10.55;;;;;;;;;;5088368;28;20016;-17
2021/05/09 12:44:21;;;;;;;20.50;8.48;;;;;;;;;;5086767;28;20075;-17
2021/05/09 12:46:47;;;;;;;26.58;10.63;;;;;;;;;;5086615;28;20081;-19
2021/05/09 12:49:14;;;;;;;26.23;10.35;;;;;;;;;;5088674;28;20032;-18
2021/05/09 12:51:55;;;;;;;20.45;10.45;;;;;;;;;;5088619;28;20106;-17
2021/05/09 12:54:29;;;;;;;26.38;6.43;;;;;;;;;;5088197;28;20505;-17
2021/05/09 12:57:12;;;;;;;24.33;10.52;;;;;;;;;;5086923;28;20476;-18
2021/05/09 12:59:47;;;;;;;19.20;6.68;;;;;;;;;;5090300;28;20032;-17
2021/05/09 13:02:17;;;;;;;11.82;5.70;;;;;;;;;;5093044;28;20055;-19
2021/05/09 13:04:58;;;;;;;11.40;5.50;;;;;;;;;;5092768;28;20028;-17
2021/05/09 13:07:24;;;;;;;18.63;8.18;;;;;;;;;;5092215;28;20036;-17
2021/05/09 13:09:50;;;;;;;39.33;14.98;;;;;;;;;;5092487;28;20012;-17
2021/05/09 13:12:16;;;;;;;34.67;14.23;;;;;;;;;;5091918;28;20044;-17
2021/05/09 13:14:45;;;;;;;26.88;11.52;;;;;;;;;;5091059;28;20120;-17
2021/05/09 13:17:11;;;;;;;13.35;5.38;;;;;;;;;;5092625;28;20146;-17
2021/05/09 13:19:38;;;;;;;29.73;8.13;;;;;;;;;;5103493;28;20485;-17
2021/05/09 13:22:04;;;;;;;24.67;10.50;;;;;;;;;;5072478;28;20035;-17
2021/05/09 13:24:29;;;;;;;20.95;9.32;;;;;;;;;;5072131;28;20017;-17
2021/05/09 13:26:54;;;;;;;25.17;10.40;;;;;;;;;;5071782;28;20045;-17
2021/05/09 13:29:20;;;;;;;41.17;16.70;;;;;;;;;;5085240;28;20641;-17
2021/05/09 13:31:45;;;;;;;22.58;11.02;;;;;;;;;;5090543;28;20066;-17
2021/05/09 13:34:11;;;;;;;38.58;14.02;;;;;;;;;;5092456;28;20670;-17
2021/05/09 13:36:37;;;;;;;24.25;10.77;;;;;;;;;;5092167;28;20043;-17
2021/05/09 13:39:02;;;;;;;33.63;12.93;;;;;;;;;;5092325;28;20069;-17
2021/05/09 13:41:28;;;;;;;67.75;21.20;;;;;;;;;;5092425;28;20477;-18
2021/05/09 13:43:53;;;;;;;51.60;18.50;;;;;;;;;;5091810;28;20020;-17
2021/05/09 13:46:18;;;;;;;38.45;12.50;;;;;;;;;;5092518;28;20039;-17
2021/05/09 13:48:44;;;;;;;45.95;11.90;;;;;;;;;;5092614;28;20054;-17
2021/05/09 13:51:09;;;;;;;30.02;12.02;;;;;;;;;;5092445;28;20036;-17
2021/05/09 13:53:35;;;;;;;31.98;11.55;;;;;;;;;;5092459;28;20017;-17
2021/05/09 13:56:03;;;;;;;33.08;12.13;;;;;;;;;;5091735;28;20107;-17
2021/05/09 13:58:29;;;;;;;14.90;8.13;;;;;;;;;;5090645;28;20020;-17
2021/05/09 14:00:54;;;;;;;31.30;11.73;;;;;;;;;;5092294;28;20035;-17
2021/05/09 14:03:20;;;;;;;17.45;8.75;;;;;;;;;;5092036;28;20015;-18
2021/05/09 14:05:45;;;;;;;23.17;10.70;;;;;;;;;;5092087;28;20089;-18
2021/05/09 14:08:10;;;;;;;13.02;6.38;;;;;;;;;;5091391;28;20517;-17
2021/05/09 14:10:36;;;;;;;8.32;5.95;;;;;;;;;;5090406;28;20076;-17
2021/05/09 14:13:01;;;;;;;9.43;6.40;;;;;;;;;;5091926;28;20017;-17
2021/05/09 14:15:27;;;;;;;20.77;8.93;;;;;;;;;;5091361;28;20115;-17
2021/05/09 14:17:53;;;;;;;21.42;8.15;;;;;;;;;;5091018;28;20095;-17
2021/05/09 14:20:19;;;;;;;34.13;9.25;;;;;;;;;;5091387;28;20043;-17
2021/05/09 14:22:44;;;;;;;17.42;8.02;;;;;;;;;;5091380;28;20020;-17
2021/05/09 14:25:10;;;;;;;13.90;5.10;;;;;;;;;;5091217;28;20110;-17
2021/05/09 14:27:35;;;;;;;15.50;8.10;;;;;;;;;;5091040;28;20115;-17
2021/05/09 14:30:01;;;;;;;33.90;8.98;;;;;;;;;;5091483;28;20044;-17
2021/05/09 14:32:26;;;;;;;26.33;8.43;;;;;;;;;;5090018;28;20036;-17
2021/05/09 14:34:52;;;;;;;29.33;10.45;;;;;;;;;;5091708;28;20028;-17
2021/05/09 14:37:17;;;;;;;6.35;4.70;;;;;;;;;;5090952;28;20020;-17
2021/05/09 14:39:43;;;;;;;18.00;7.18;;;;;;;;;;5090823;28;20043;-18
2021/05/09 14:42:09;;;;;;;14.18;5.65;;;;;;;;;;5090688;28;20157;-18